createdAt,value
2023-02-14T00:00:27.444Z,65.01
2023-02-14T00:02:54.033Z,64.39
2023-02-14T00:05:20.571Z,64.32
2023-02-14T00:07:47.079Z,64.59
2023-02-14T00:10:13.578Z,64.17
2023-02-14T00:12:40.063Z,64.22
2023-02-14T00:15:25.413Z,64.64
2023-02-14T00:17:54.586Z,64.75
2023-02-14T00:20:22.396Z,64.30
2023-02-14T00:22:48.967Z,64.41
2023-02-14T00:25:15.695Z,64.45
2023-02-14T00:27:42.206Z,64.55
2023-02-14T00:30:09.460Z,64.83
2023-02-14T00:32:39.436Z,64.24
2023-02-14T00:35:07.394Z,64.55
2023-02-14T00:37:34.368Z,64.60
2023-02-14T00:40:00.980Z,64.67
2023-02-14T00:42:27.513Z,64.80
2023-02-14T00:44:54.040Z,64.35
2023-02-14T00:47:20.554Z,64.01
2023-02-14T00:49:47.151Z,64.38
2023-02-14T00:52:13.694Z,64.34
2023-02-14T00:54:40.208Z,64.62
2023-02-14T00:57:06.777Z,64.21
2023-02-14T00:59:33.355Z,64.33
2023-02-14T01:01:59.900Z,63.70
2023-02-14T01:04:28.719Z,63.86
2023-02-14T01:06:55.333Z,64.31
2023-02-14T01:09:21.908Z,64.11
2023-02-14T01:11:48.954Z,64.14
2023-02-14T01:14:15.865Z,63.89
2023-02-14T01:16:42.558Z,63.95
2023-02-14T01:19:09.365Z,63.74
2023-02-14T01:21:35.990Z,63.86
2023-02-14T01:24:05.834Z,64.04
2023-02-14T01:26:32.992Z,63.74
2023-02-14T01:29:01.424Z,64.29
2023-02-14T01:31:31.862Z,64.43
2023-02-14T01:33:58.925Z,64.02
2023-02-14T01:36:33.577Z,63.53
2023-02-14T01:39:02.506Z,63.90
2023-02-14T01:41:31.998Z,63.81
2023-02-14T01:44:27.618Z,63.93
2023-02-14T01:46:55.438Z,64.14
2023-02-14T01:49:31.108Z,64.20
2023-02-14T01:52:04.496Z,63.88
2023-02-14T01:54:32.028Z,64.24
2023-02-14T01:57:01.354Z,63.48
2023-02-14T01:59:31.139Z,63.58
2023-02-14T02:01:57.794Z,63.66
2023-02-14T02:04:28.271Z,63.88
2023-02-14T02:07:00.071Z,64.26
2023-02-14T02:09:44.788Z,64.12
2023-02-14T02:12:11.962Z,63.84
2023-02-14T02:14:38.648Z,63.70
2023-02-14T02:17:20.459Z,64.04
2023-02-14T02:20:24.596Z,64.08
2023-02-14T02:23:21.253Z,64.15
2023-02-14T02:26:13.930Z,64.59
2023-02-14T02:29:01.868Z,64.05
2023-02-14T02:31:54.585Z,64.68
2023-02-14T02:34:55.059Z,63.74
2023-02-14T02:37:46.628Z,63.78
2023-02-14T02:40:29.695Z,64.21
2023-02-14T02:43:03.450Z,64.83
2023-02-14T02:46:01.750Z,64.82
2023-02-14T02:48:38.027Z,64.58
2023-02-14T02:51:28.901Z,64.41
2023-02-14T02:54:03.084Z,64.97
2023-02-14T02:56:46.386Z,64.13
2023-02-14T02:59:18.625Z,64.52
2023-02-14T03:02:05.381Z,64.56
2023-02-14T03:04:51.991Z,64.47
2023-02-14T03:07:35.012Z,64.34
2023-02-14T03:10:08.288Z,64.07
2023-02-14T03:12:34.696Z,64.75
2023-02-14T03:15:14.920Z,64.46
2023-02-14T03:18:02.756Z,64.29
2023-02-14T03:20:49.822Z,64.71
2023-02-14T03:23:45.589Z,65.08
2023-02-14T03:26:18.862Z,65.11
2023-02-14T03:29:10.163Z,65.21
2023-02-14T03:31:57.209Z,65.00
2023-02-14T03:34:48.229Z,64.28
2023-02-14T03:37:19.039Z,65.13
2023-02-14T03:40:03.364Z,64.81
2023-02-14T03:42:33.137Z,64.80
2023-02-14T03:45:00.563Z,64.88
2023-02-14T03:47:30.966Z,64.94
2023-02-14T03:50:02.642Z,65.04
2023-02-14T03:52:30.467Z,64.40
2023-02-14T03:54:58.042Z,64.65
2023-02-14T03:57:28.429Z,64.74
2023-02-14T03:59:55.475Z,65.47
2023-02-14T04:02:27.443Z,65.36
2023-02-14T04:04:54.369Z,65.11
2023-02-14T04:07:22.560Z,64.53
2023-02-14T04:09:49.575Z,65.13
2023-02-14T04:12:18.211Z,64.66
2023-02-14T04:14:46.418Z,65.32
2023-02-14T04:17:31.717Z,65.27
2023-02-14T04:19:58.182Z,65.35
2023-02-14T04:22:24.706Z,64.68
2023-02-14T04:24:51.225Z,64.75
2023-02-14T04:27:17.720Z,65.22
2023-02-14T04:29:48.883Z,65.12
2023-02-14T04:32:18.318Z,65.13
2023-02-14T04:34:45.128Z,65.19
2023-02-14T04:37:12.008Z,64.99
2023-02-14T04:39:38.762Z,65.19
2023-02-14T04:42:05.414Z,65.24
2023-02-14T04:44:34.031Z,64.89
2023-02-14T04:47:01.027Z,65.20
2023-02-14T04:49:28.127Z,64.88
2023-02-14T04:51:54.598Z,65.22
2023-02-14T04:54:21.213Z,65.13
2023-02-14T04:56:47.847Z,65.38
2023-02-14T04:59:14.858Z,65.87
2023-02-14T05:01:41.772Z,65.15
2023-02-14T05:04:08.551Z,64.92
2023-02-14T05:06:35.281Z,65.22
2023-02-14T05:09:02.115Z,65.49
2023-02-14T05:11:28.827Z,65.76
2023-02-14T05:13:55.474Z,65.39
2023-02-14T05:16:22.182Z,65.60
2023-02-14T05:18:48.703Z,65.58
2023-02-14T05:21:15.274Z,65.63
2023-02-14T05:23:41.773Z,65.18
2023-02-14T05:26:08.306Z,64.91
2023-02-14T05:28:35.238Z,65.34
2023-02-14T05:31:02.202Z,64.92
2023-02-14T05:33:29.131Z,65.57
2023-02-14T05:35:55.691Z,65.36
2023-02-14T05:38:22.205Z,65.03
2023-02-14T05:40:48.729Z,65.04
2023-02-14T05:43:15.226Z,64.90
2023-02-14T05:45:41.798Z,65.52
2023-02-14T05:48:08.308Z,65.27
2023-02-14T05:50:34.872Z,65.23
2023-02-14T05:53:01.994Z,65.79
2023-02-14T05:55:28.866Z,65.96
2023-02-14T05:57:55.473Z,65.29
2023-02-14T06:00:22.883Z,65.71
2023-02-14T06:02:49.583Z,65.98
2023-02-14T06:05:18.074Z,65.56
2023-02-14T06:07:50.529Z,66.26
2023-02-14T06:10:18.491Z,65.92
2023-02-14T06:12:45.138Z,66.08
2023-02-14T06:15:11.909Z,65.62
2023-02-14T06:17:38.438Z,66.59
2023-02-14T06:20:05.796Z,66.35
2023-02-14T06:22:32.642Z,66.48
2023-02-14T06:24:59.220Z,66.42
2023-02-14T06:27:25.718Z,66.33
2023-02-14T06:29:52.234Z,66.08
2023-02-14T06:32:18.965Z,66.25
2023-02-14T06:34:45.658Z,66.08
2023-02-14T06:37:12.222Z,66.36
2023-02-14T06:39:38.699Z,65.99
2023-02-14T06:42:05.219Z,65.86
2023-02-14T06:44:31.763Z,66.05
2023-02-14T06:46:58.484Z,66.21
2023-02-14T06:49:25.059Z,66.02
2023-02-14T06:51:51.990Z,65.57
2023-02-14T06:54:18.558Z,66.20
2023-02-14T06:56:45.103Z,66.15
2023-02-14T06:59:11.592Z,65.42
2023-02-14T07:01:38.402Z,65.84
2023-02-14T07:04:04.988Z,66.01
2023-02-14T07:06:31.966Z,65.80
2023-02-14T07:08:58.456Z,66.08
2023-02-14T07:11:25.008Z,66.06
2023-02-14T07:13:51.521Z,65.75
2023-02-14T07:16:18.093Z,65.56
2023-02-14T07:18:44.614Z,65.68
2023-02-14T07:21:11.196Z,65.24
2023-02-14T07:23:37.738Z,65.19
2023-02-14T07:26:04.277Z,64.74
2023-02-14T07:28:31.654Z,64.65
2023-02-14T07:31:01.821Z,65.43
2023-02-14T07:33:28.662Z,65.18
2023-02-14T07:35:55.177Z,65.18
2023-02-14T07:38:21.864Z,65.56
2023-02-14T07:40:48.358Z,65.17
2023-02-14T07:43:14.921Z,65.48
2023-02-14T07:45:41.478Z,65.06
2023-02-14T07:48:08.020Z,65.07
2023-02-14T07:50:34.496Z,64.61
2023-02-14T07:53:01.071Z,65.08
2023-02-14T07:55:27.607Z,65.04
2023-02-14T07:57:54.159Z,64.32
2023-02-14T08:00:21.145Z,64.89
2023-02-14T08:02:47.698Z,64.26
2023-02-14T08:05:14.945Z,63.48
2023-02-14T08:07:43.090Z,63.90
2023-02-14T08:10:12.923Z,63.15
2023-02-14T08:12:59.005Z,63.32
2023-02-14T08:15:52.415Z,63.39
2023-02-14T08:18:20.058Z,64.21
2023-02-14T08:20:49.721Z,63.79
2023-02-14T08:23:17.675Z,63.29
2023-02-14T08:25:44.447Z,63.16
2023-02-14T08:28:10.961Z,63.41
2023-02-14T08:30:38.183Z,63.03
2023-02-14T08:33:05.459Z,63.08
2023-02-14T08:35:31.990Z,62.67
2023-02-14T08:37:58.581Z,63.05
2023-02-14T08:40:25.357Z,62.81
2023-02-14T08:42:51.929Z,61.99
2023-02-14T08:45:18.567Z,62.44
2023-02-14T08:47:45.175Z,62.09
2023-02-14T08:50:14.277Z,61.37
2023-02-14T08:52:41.333Z,62.07
2023-02-14T08:55:08.048Z,61.30
2023-02-14T08:57:34.580Z,61.19
2023-02-14T09:00:01.216Z,61.43
2023-02-14T09:02:27.818Z,61.60
2023-02-14T09:04:54.332Z,61.46
2023-02-14T09:07:20.953Z,61.56
2023-02-14T09:09:47.441Z,61.48
2023-02-14T09:12:14.039Z,61.51
2023-02-14T09:14:45.721Z,61.08
2023-02-14T09:17:13.199Z,61.54
2023-02-14T09:19:39.990Z,61.40
2023-02-14T09:22:07.883Z,61.14
2023-02-14T09:24:35.842Z,61.03
2023-02-14T09:27:02.484Z,60.43
2023-02-14T09:29:30.242Z,60.90
2023-02-14T09:31:58.773Z,60.29
2023-02-14T09:34:44.566Z,60.54
2023-02-14T09:37:12.190Z,60.51
2023-02-14T09:39:39.375Z,60.11
2023-02-14T09:42:27.259Z,60.77
2023-02-14T09:45:01.700Z,60.28
2023-02-14T09:47:37.452Z,59.55
2023-02-14T09:50:07.035Z,59.87
2023-02-14T09:52:34.117Z,59.97
2023-02-14T09:55:01.382Z,60.18
2023-02-14T09:57:39.642Z,59.79
2023-02-14T10:00:34.773Z,59.55
2023-02-14T10:03:05.951Z,59.38
2023-02-14T10:05:37.696Z,59.64
2023-02-14T10:08:34.282Z,59.42
2023-02-14T10:11:04.902Z,59.82
2023-02-14T10:13:49.501Z,59.33
2023-02-14T10:16:27.071Z,59.41
2023-02-14T10:19:02.325Z,59.32
2023-02-14T10:21:34.304Z,59.82
2023-02-14T10:24:06.888Z,59.82
2023-02-14T10:26:38.085Z,58.68
2023-02-14T10:29:11.420Z,59.34
2023-02-14T10:31:43.964Z,59.74
2023-02-14T10:34:18.520Z,59.17
2023-02-14T10:37:20.479Z,59.13
2023-02-14T10:39:59.686Z,60.06
2023-02-14T10:42:42.012Z,60.03
2023-02-14T10:45:17.619Z,59.83
2023-02-14T10:48:02.708Z,59.68
2023-02-14T10:50:39.899Z,59.95
2023-02-14T10:53:22.942Z,60.02
2023-02-14T10:55:57.627Z,60.06
2023-02-14T10:58:27.352Z,59.56
2023-02-14T11:01:00.837Z,59.88
2023-02-14T11:03:28.872Z,59.85
2023-02-14T11:05:55.739Z,59.28
2023-02-14T11:08:28.043Z,59.28
2023-02-14T11:11:04.723Z,59.08
2023-02-14T11:13:39.045Z,59.47
2023-02-14T11:16:10.982Z,59.38
2023-02-14T11:18:40.147Z,59.17
2023-02-14T11:21:13.094Z,59.84
2023-02-14T11:23:44.322Z,59.95
2023-02-14T11:26:47.530Z,59.89
2023-02-14T11:29:16.530Z,59.49
2023-02-14T11:31:43.460Z,60.26
2023-02-14T11:34:33.200Z,59.26
2023-02-14T11:37:00.337Z,60.38
2023-02-14T11:39:29.385Z,59.90
2023-02-14T11:41:59.570Z,59.92
2023-02-14T11:44:28.395Z,60.23
2023-02-14T11:46:56.989Z,59.82
2023-02-14T11:49:31.251Z,60.50
2023-02-14T11:52:00.650Z,60.19
2023-02-14T11:54:34.635Z,60.47
2023-02-14T11:57:12.598Z,60.01
2023-02-14T11:59:49.518Z,60.26
2023-02-14T12:02:25.442Z,60.25
2023-02-14T12:04:55.468Z,60.58
2023-02-14T12:07:26.704Z,60.51
2023-02-14T12:10:17.706Z,61.02
2023-02-14T12:13:09.718Z,60.43
2023-02-14T12:15:49.630Z,60.92
2023-02-14T12:18:34.962Z,60.79
2023-02-14T12:21:18.848Z,60.76
2023-02-14T12:23:59.784Z,60.81
2023-02-14T12:26:32.133Z,60.99
2023-02-14T12:29:02.050Z,61.00
2023-02-14T12:31:29.985Z,60.78
2023-02-14T12:33:56.652Z,61.41
2023-02-14T12:36:47.149Z,60.80
2023-02-14T12:39:58.529Z,60.79
2023-02-14T12:42:35.044Z,61.37
2023-02-14T12:45:17.953Z,61.08
2023-02-14T12:47:58.557Z,60.86
2023-02-14T12:50:31.693Z,61.22
2023-02-14T12:53:28.713Z,60.41
2023-02-14T12:56:07.258Z,60.60
2023-02-14T12:58:43.650Z,60.33
2023-02-14T13:01:38.590Z,60.79
2023-02-14T13:04:26.009Z,60.88
2023-02-14T13:07:04.659Z,60.50
2023-02-14T13:09:45.656Z,60.47
2023-02-14T13:12:30.066Z,60.44
2023-02-14T13:15:16.445Z,60.51
2023-02-14T13:17:55.617Z,60.93
2023-02-14T13:20:42.618Z,61.02
2023-02-14T13:23:17.244Z,61.24
2023-02-14T13:25:50.014Z,61.15
2023-02-14T13:28:17.344Z,60.75
2023-02-14T13:30:43.926Z,61.29
2023-02-14T13:33:22.430Z,60.19
2023-02-14T13:35:49.098Z,60.44
2023-02-14T13:38:17.496Z,60.82
2023-02-14T13:40:44.364Z,60.33
2023-02-14T13:43:11.011Z,60.40
2023-02-14T13:45:40.561Z,60.80
2023-02-14T13:48:12.310Z,60.50
2023-02-14T13:50:40.919Z,61.69
2023-02-14T13:53:12.594Z,60.69
2023-02-14T13:55:45.758Z,60.87
2023-02-14T13:58:17.443Z,60.84
2023-02-14T14:00:46.902Z,61.03
2023-02-14T14:03:36.752Z,60.70
2023-02-14T14:06:09.809Z,60.93
2023-02-14T14:08:41.577Z,61.05
2023-02-14T14:11:33.369Z,60.81
2023-02-14T14:14:02.015Z,61.31
2023-02-14T14:16:33.237Z,60.76
2023-02-14T14:19:07.277Z,61.33
2023-02-14T14:21:35.091Z,60.87
2023-02-14T14:24:26.379Z,60.74
2023-02-14T14:27:05.193Z,60.98
2023-02-14T14:29:41.032Z,60.57
2023-02-14T14:32:18.103Z,60.57
2023-02-14T14:34:55.567Z,60.93
2023-02-14T14:37:25.428Z,60.53
2023-02-14T14:39:57.685Z,60.91
2023-02-14T14:42:26.773Z,61.10
2023-02-14T14:44:57.176Z,61.23
2023-02-14T14:47:26.650Z,61.59
2023-02-14T14:49:55.063Z,61.58
2023-02-14T14:52:30.992Z,61.38
2023-02-14T14:54:58.303Z,60.59
2023-02-14T14:57:25.535Z,60.99
2023-02-14T15:00:07.048Z,60.89
2023-02-14T15:02:33.710Z,61.20
2023-02-14T15:05:18.362Z,61.55
2023-02-14T15:07:47.389Z,61.30
2023-02-14T15:10:36.001Z,61.24
2023-02-14T15:13:25.461Z,61.40
2023-02-14T15:15:52.054Z,61.83
2023-02-14T15:18:20.003Z,61.69
2023-02-14T15:20:51.104Z,61.26
2023-02-14T15:23:25.025Z,61.28
2023-02-14T15:25:52.299Z,61.73
2023-02-14T15:28:32.389Z,61.95
2023-02-14T15:31:05.502Z,61.85
2023-02-14T15:33:33.269Z,61.94
2023-02-14T15:36:06.588Z,62.00
2023-02-14T15:38:37.303Z,61.59
2023-02-14T15:41:04.161Z,62.09
2023-02-14T15:43:33.204Z,61.37
2023-02-14T15:46:38.655Z,61.15
2023-02-14T15:49:13.060Z,61.91
2023-02-14T15:51:40.767Z,61.17
2023-02-14T15:54:19.778Z,61.22
2023-02-14T15:56:49.071Z,61.71
2023-02-14T15:59:18.342Z,62.17
2023-02-14T16:01:53.760Z,61.92
2023-02-14T16:04:29.256Z,62.04
2023-02-14T16:07:33.756Z,62.03
2023-02-14T16:10:20.569Z,62.04
2023-02-14T16:12:57.591Z,61.85
2023-02-14T16:15:35.368Z,62.61
2023-02-14T16:18:07.904Z,62.54
2023-02-14T16:20:41.819Z,62.02
2023-02-14T16:23:29.275Z,62.54
2023-02-14T16:25:58.870Z,62.51
2023-02-14T16:28:28.955Z,61.95
2023-02-14T16:30:57.198Z,62.74
2023-02-14T16:33:30.612Z,62.22
2023-02-14T16:36:06.171Z,62.55
2023-02-14T16:38:35.696Z,62.38
2023-02-14T16:41:03.469Z,62.91
2023-02-14T16:43:30.030Z,62.71
2023-02-14T16:45:56.566Z,63.44
2023-02-14T16:48:23.127Z,62.59
2023-02-14T16:50:49.798Z,62.86
2023-02-14T16:53:24.406Z,62.84
2023-02-14T16:55:52.726Z,62.92
2023-02-14T16:58:20.231Z,62.70
2023-02-14T17:00:46.773Z,62.45
2023-02-14T17:03:13.440Z,62.82
2023-02-14T17:05:40.401Z,62.60
2023-02-14T17:08:11.132Z,62.69
2023-02-14T17:10:38.057Z,63.60
2023-02-14T17:13:05.185Z,63.33
2023-02-14T17:15:32.851Z,64.19
2023-02-14T17:18:07.616Z,63.29
2023-02-14T17:20:37.428Z,63.05
2023-02-14T17:23:03.980Z,63.18
2023-02-14T17:25:30.512Z,63.44
2023-02-14T17:27:57.262Z,63.48
2023-02-14T17:30:23.909Z,62.96
2023-02-14T17:32:50.742Z,63.23
2023-02-14T17:35:17.515Z,63.30
2023-02-14T17:37:44.517Z,62.94
2023-02-14T17:40:11.684Z,63.01
2023-02-14T17:42:39.464Z,63.01
2023-02-14T17:45:06.651Z,63.08
2023-02-14T17:47:33.905Z,63.13
2023-02-14T17:50:00.828Z,63.33
2023-02-14T17:52:29.804Z,63.80
2023-02-14T17:54:56.330Z,63.69
2023-02-14T17:57:22.813Z,63.69
2023-02-14T17:59:49.377Z,63.65
2023-02-14T18:02:16.817Z,63.23
2023-02-14T18:04:43.404Z,63.46
2023-02-14T18:07:10.104Z,63.83
2023-02-14T18:09:36.599Z,64.03
2023-02-14T18:12:04.120Z,64.10
2023-02-14T18:14:31.463Z,63.73
2023-02-14T18:16:58.102Z,63.61
2023-02-14T18:19:24.727Z,64.27
2023-02-14T18:21:51.313Z,64.61
2023-02-14T18:24:18.144Z,64.78
2023-02-14T18:26:44.791Z,64.66
2023-02-14T18:29:12.709Z,65.17
2023-02-14T18:31:42.063Z,64.23
2023-02-14T18:34:09.077Z,64.42
2023-02-14T18:36:37.067Z,64.30
2023-02-14T18:39:04.063Z,64.21
2023-02-14T18:41:30.712Z,64.24
2023-02-14T18:43:57.235Z,63.90
2023-02-14T18:49:30.477Z,64.45
2023-02-14T18:51:58.754Z,64.46
2023-02-14T18:54:25.294Z,64.14
2023-02-14T18:56:51.792Z,65.52
2023-02-14T18:59:18.339Z,64.64
2023-02-14T19:01:45.701Z,64.40
2023-02-14T19:04:12.877Z,65.10
2023-02-14T19:06:41.007Z,64.92
2023-02-14T19:09:10.314Z,64.83
2023-02-14T19:11:37.179Z,64.49
2023-02-14T19:14:09.361Z,64.99
2023-02-14T19:16:39.083Z,64.81
2023-02-14T19:19:05.633Z,64.65
2023-02-14T19:21:34.076Z,64.59
2023-02-14T19:24:02.128Z,64.96
2023-02-14T19:26:32.804Z,64.77
2023-02-14T19:29:02.109Z,65.49
2023-02-14T19:31:29.477Z,65.12
2023-02-14T19:33:56.098Z,65.26
2023-02-14T19:36:23.657Z,65.53
2023-02-14T19:38:51.409Z,65.46
2023-02-14T19:41:31.047Z,65.69
2023-02-14T19:43:58.692Z,65.56
2023-02-14T19:46:25.936Z,65.43
2023-02-14T19:48:52.461Z,65.15
2023-02-14T19:51:25.684Z,65.79
2023-02-14T19:53:52.437Z,65.49
2023-02-14T19:56:23.282Z,65.81
2023-02-14T19:58:50.898Z,65.33
2023-02-14T20:01:29.949Z,65.23
2023-02-14T20:03:56.901Z,65.37
2023-02-14T20:06:25.380Z,65.15
2023-02-14T20:08:52.351Z,64.81
2023-02-14T20:11:46.270Z,65.46
2023-02-14T20:14:13.941Z,65.85
2023-02-14T20:16:40.492Z,66.25
2023-02-14T20:19:13.575Z,65.72
2023-02-14T20:21:41.913Z,65.85
2023-02-14T20:24:08.994Z,65.79
2023-02-14T20:26:37.105Z,65.84
2023-02-14T20:29:04.883Z,66.04
2023-02-14T20:31:35.146Z,66.43
2023-02-14T20:34:02.146Z,66.29
2023-02-14T20:36:29.105Z,66.30
2023-02-14T20:38:59.366Z,66.06
2023-02-14T20:41:27.602Z,66.28
2023-02-14T20:43:55.032Z,66.43
2023-02-14T20:46:22.523Z,66.17
2023-02-14T20:48:50.935Z,66.52
2023-02-14T20:51:19.352Z,66.13
2023-02-14T20:53:46.316Z,66.12
2023-02-14T20:56:13.791Z,66.70
2023-02-14T20:58:40.762Z,66.92
2023-02-14T21:01:13.215Z,66.59
2023-02-14T21:03:40.942Z,66.44
2023-02-14T21:06:11.479Z,66.11
2023-02-14T21:08:38.552Z,66.35
2023-02-14T21:11:06.217Z,66.70
2023-02-14T21:13:33.315Z,66.42
2023-02-14T21:16:04.565Z,66.82
2023-02-14T21:18:32.411Z,66.56
2023-02-14T21:21:15.709Z,66.79
2023-02-14T21:23:42.207Z,66.55
2023-02-14T21:26:08.928Z,67.99
2023-02-14T21:28:35.724Z,67.00
2023-02-14T21:31:08.128Z,67.22
2023-02-14T21:33:34.943Z,67.20
2023-02-14T21:36:11.802Z,67.06
2023-02-14T21:38:38.534Z,67.67
2023-02-14T21:41:08.298Z,67.29
2023-02-14T21:43:36.342Z,67.28
2023-02-14T21:46:05.205Z,67.19
2023-02-14T21:48:50.879Z,66.88
2023-02-14T21:51:17.720Z,67.14
2023-02-14T21:53:44.623Z,67.46
2023-02-14T21:56:15.098Z,67.31
2023-02-14T21:58:43.843Z,67.23
2023-02-14T22:01:18.814Z,67.17
2023-02-14T22:03:45.408Z,67.59
2023-02-14T22:06:14.715Z,67.61
2023-02-14T22:08:42.105Z,67.70
2023-02-14T22:11:11.769Z,67.81
2023-02-14T22:13:38.530Z,67.99
2023-02-14T22:16:15.819Z,67.84
2023-02-14T22:18:42.682Z,67.81
2023-02-14T22:21:11.937Z,68.07
2023-02-14T22:23:38.711Z,68.32
2023-02-14T22:26:10.396Z,68.37
2023-02-14T22:28:36.924Z,68.48
2023-02-14T22:31:04.106Z,68.59
2023-02-14T22:33:30.973Z,68.69
2023-02-14T22:35:59.382Z,68.88
2023-02-14T22:38:26.218Z,69.00
2023-02-14T22:40:52.712Z,69.28
2023-02-14T22:43:19.272Z,69.13
2023-02-14T22:45:45.795Z,68.87
2023-02-14T22:48:12.272Z,69.30
2023-02-14T22:50:38.769Z,69.51
2023-02-14T22:53:05.289Z,69.43
2023-02-14T22:55:31.819Z,69.25
2023-02-14T22:57:58.386Z,69.34
2023-02-14T23:00:25.257Z,69.77
2023-02-14T23:02:51.866Z,69.87
2023-02-14T23:05:18.405Z,69.79
2023-02-14T23:07:44.959Z,69.83
2023-02-14T23:10:11.497Z,69.95
2023-02-14T23:12:56.658Z,70.10
2023-02-14T23:15:41.685Z,69.72
2023-02-14T23:18:31.216Z,69.89
2023-02-14T23:21:16.366Z,70.09
2023-02-14T23:23:42.957Z,69.91
2023-02-14T23:26:09.506Z,70.23
2023-02-14T23:28:36.122Z,70.47
2023-02-14T23:31:02.831Z,70.34
2023-02-14T23:33:29.331Z,70.69
2023-02-14T23:35:55.883Z,70.82
2023-02-14T23:38:22.430Z,70.49
2023-02-14T23:41:18.208Z,70.48
2023-02-14T23:43:44.852Z,70.23
2023-02-14T23:46:11.530Z,70.03
2023-02-14T23:48:38.033Z,70.22
2023-02-14T23:51:05.006Z,70.26
2023-02-14T23:53:31.516Z,69.55
2023-02-14T23:56:01.717Z,70.23
2023-02-14T23:58:28.506Z,70.29
